Time;durP1;ratioP1;P1;durP2;ratioP2;P2;SDS_P1;SDS_P2;PMS_P1;PMS_P2;Temp;Humidity;BMP_temperature;BMP_pressure;BME280_temperature;BME280_humidity;BME280_pressure;Samples;Min_cycle;Max_cycle;Signal;HPM_P1;HPM_P2
2023/07/27 00:02:07;;;;;;;3.05;1.83;;;;;;;;;;5067913;28;20040;-75
2023/07/27 00:04:32;;;;;;;1.30;1.20;;;;;;;;;;5062777;28;20490;-73
2023/07/27 00:06:58;;;;;;;2.67;2.00;;;;;;;;;;5064112;28;20048;-75
2023/07/27 00:09:23;;;;;;;2.92;1.83;;;;;;;;;;5034358;28;20243;-75
2023/07/27 00:11:49;;;;;;;2.83;2.30;;;;;;;;;;5057936;28;20035;-75
2023/07/27 00:14:14;;;;;;;1.80;1.70;;;;;;;;;;5064843;28;20039;-74
2023/07/27 00:16:39;;;;;;;1.95;1.75;;;;;;;;;;5068536;28;20040;-74
2023/07/27 00:19:05;;;;;;;1.75;1.40;;;;;;;;;;5067842;28;20067;-74
2023/07/27 00:21:30;;;;;;;2.40;1.75;;;;;;;;;;5056576;28;20099;-75
2023/07/27 00:23:55;;;;;;;1.60;1.30;;;;;;;;;;5057418;28;20040;-74
2023/07/27 00:26:21;;;;;;;1.92;1.60;;;;;;;;;;5057268;28;20124;-74
2023/07/27 00:28:46;;;;;;;1.38;1.27;;;;;;;;;;5052543;28;20154;-73
2023/07/27 00:31:12;;;;;;;1.90;1.80;;;;;;;;;;5030484;28;20057;-75
2023/07/27 00:33:37;;;;;;;2.63;1.90;;;;;;;;;;5057013;28;20500;-74
2023/07/27 00:36:03;;;;;;;2.05;1.80;;;;;;;;;;5056004;28;20045;-75
2023/07/27 00:38:28;;;;;;;1.67;1.30;;;;;;;;;;5052967;28;20454;-75
2023/07/27 00:40:54;;;;;;;2.63;1.70;;;;;;;;;;5047820;28;20040;-74
2023/07/27 00:43:19;;;;;;;2.17;1.83;;;;;;;;;;5044072;28;20044;-75
2023/07/27 00:45:47;;;;;;;1.30;1.20;;;;;;;;;;5065243;28;20493;-74
2023/07/27 00:48:13;;;;;;;4.47;1.73;;;;;;;;;;5063714;28;20036;-74
2023/07/27 00:50:38;;;;;;;2.45;1.38;;;;;;;;;;5054566;28;20595;-74
2023/07/27 00:53:08;;;;;;;2.15;1.65;;;;;;;;;;5042378;28;20052;-75
2023/07/27 00:55:34;;;;;;;1.75;1.55;;;;;;;;;;5045965;28;20037;-75
2023/07/27 00:57:59;;;;;;;2.13;1.70;;;;;;;;;;5047650;28;20039;-74
2023/07/27 01:00:26;;;;;;;3.42;1.70;;;;;;;;;;5068655;28;20059;-74
2023/07/27 01:02:51;;;;;;;2.25;1.70;;;;;;;;;;5068181;28;20404;-74
2023/07/27 01:05:17;;;;;;;1.50;1.40;;;;;;;;;;5055157;28;20024;-75
2023/07/27 01:07:42;;;;;;;1.92;1.63;;;;;;;;;;5060489;28;20044;-74
2023/07/27 01:10:09;;;;;;;2.35;1.50;;;;;;;;;;5061016;28;20040;-74
2023/07/27 01:12:41;;;;;;;2.05;1.60;;;;;;;;;;5069872;28;20048;-74
2023/07/27 01:15:09;;;;;;;3.80;2.10;;;;;;;;;;5061718;28;20520;-74
2023/07/27 01:17:58;;;;;;;1.60;1.50;;;;;;;;;;5049833;28;20040;-74
2023/07/27 01:20:46;;;;;;;2.08;1.33;;;;;;;;;;5065871;28;20047;-74
2023/07/27 01:23:33;;;;;;;2.30;1.58;;;;;;;;;;5061527;28;20032;-74
2023/07/27 01:26:01;;;;;;;1.80;1.60;;;;;;;;;;5041026;28;20048;-74
2023/07/27 01:28:40;;;;;;;2.28;1.67;;;;;;;;;;5068743;28;20043;-74
2023/07/27 01:31:41;;;;;;;2.95;1.52;;;;;;;;;;5065333;28;20063;-74
2023/07/27 01:34:17;;;;;;;1.75;1.48;;;;;;;;;;5007080;28;20106;-74
2023/07/27 01:36:47;;;;;;;1.45;1.35;;;;;;;;;;5064828;28;20032;-74
2023/07/27 01:39:17;;;;;;;1.67;1.43;;;;;;;;;;5044063;28;20079;-74
2023/07/27 01:41:43;;;;;;;3.28;1.95;;;;;;;;;;5052191;28;20113;-74
2023/07/27 01:44:11;;;;;;;1.90;1.60;;;;;;;;;;5051117;28;20536;-74
2023/07/27 01:46:38;;;;;;;2.33;1.80;;;;;;;;;;5055009;28;20040;-74
2023/07/27 01:49:06;;;;;;;1.90;1.73;;;;;;;;;;5049751;28;20593;-74
2023/07/27 01:51:35;;;;;;;2.15;1.80;;;;;;;;;;5063586;28;20041;-74
2023/07/27 01:54:01;;;;;;;1.70;1.40;;;;;;;;;;5060103;28;20060;-74
2023/07/27 01:56:28;;;;;;;1.50;1.40;;;;;;;;;;5055247;28;20588;-74
2023/07/27 01:58:54;;;;;;;2.47;1.40;;;;;;;;;;5018866;28;20048;-74
2023/07/27 02:01:20;;;;;;;4.85;2.05;;;;;;;;;;5069260;28;20056;-74
2023/07/27 02:03:47;;;;;;;2.15;1.80;;;;;;;;;;5056839;28;20475;-74
2023/07/27 02:06:12;;;;;;;3.22;1.98;;;;;;;;;;5054583;28;20040;-74
2023/07/27 02:08:38;;;;;;;2.20;2.00;;;;;;;;;;5054535;28;20070;-74
2023/07/27 02:11:04;;;;;;;2.85;2.10;;;;;;;;;;5043127;28;20512;-74
2023/07/27 02:13:33;;;;;;;3.25;1.70;;;;;;;;;;5032714;28;20028;-74
2023/07/27 02:16:08;;;;;;;2.90;1.58;;;;;;;;;;5071286;28;20075;-74
2023/07/27 02:18:35;;;;;;;2.30;2.05;;;;;;;;;;5063660;28;20051;-74
2023/07/27 02:21:03;;;;;;;3.58;2.00;;;;;;;;;;5059667;28;20535;-75
2023/07/27 02:23:30;;;;;;;2.78;2.15;;;;;;;;;;5058612;28;20036;-74
2023/07/27 02:25:55;;;;;;;2.63;1.77;;;;;;;;;;5052971;28;20041;-74
2023/07/27 02:28:27;;;;;;;2.90;1.75;;;;;;;;;;5068575;28;20551;-74
2023/07/27 02:30:52;;;;;;;2.40;2.20;;;;;;;;;;5070574;28;20588;-75
2023/07/27 02:33:18;;;;;;;1.90;1.60;;;;;;;;;;5063340;28;20039;-74
2023/07/27 02:35:43;;;;;;;2.53;1.92;;;;;;;;;;5064470;28;20405;-74
2023/07/27 02:38:09;;;;;;;2.90;1.98;;;;;;;;;;5062899;28;20459;-74
2023/07/27 02:40:34;;;;;;;2.03;1.55;;;;;;;;;;5051638;28;20039;-75
2023/07/27 02:42:59;;;;;;;2.67;1.60;;;;;;;;;;5057775;28;20042;-74
2023/07/27 02:45:25;;;;;;;2.53;1.92;;;;;;;;;;5058150;28;20037;-74
2023/07/27 02:47:50;;;;;;;4.05;2.03;;;;;;;;;;5054316;28;20768;-74
2023/07/27 02:50:15;;;;;;;2.65;2.13;;;;;;;;;;5061684;28;20046;-74
2023/07/27 02:52:44;;;;;;;2.35;2.03;;;;;;;;;;5054453;28;20564;-75
2023/07/27 02:55:09;;;;;;;1.98;1.40;;;;;;;;;;5034470;28;20045;-75
2023/07/27 02:57:35;;;;;;;2.70;1.98;;;;;;;;;;5066472;28;20032;-74
2023/07/27 03:00:02;;;;;;;2.50;1.75;;;;;;;;;;5068604;28;20029;-74
2023/07/27 03:02:27;;;;;;;2.35;2.13;;;;;;;;;;5057017;28;20048;-73
2023/07/27 03:04:53;;;;;;;2.58;1.83;;;;;;;;;;5044936;28;20510;-75
2023/07/27 03:07:19;;;;;;;1.92;1.40;;;;;;;;;;5048601;28;20060;-74
2023/07/27 03:09:50;;;;;;;2.65;1.65;;;;;;;;;;5064233;28;20044;-74
2023/07/27 03:12:15;;;;;;;2.17;1.55;;;;;;;;;;5038186;28;20063;-73
2023/07/27 03:14:40;;;;;;;1.58;1.45;;;;;;;;;;5068574;28;20032;-74
2023/07/27 03:17:06;;;;;;;2.50;1.67;;;;;;;;;;5066852;28;20040;-74
2023/07/27 03:19:31;;;;;;;1.73;1.50;;;;;;;;;;5063546;28;20064;-74
2023/07/27 03:21:56;;;;;;;1.88;1.70;;;;;;;;;;5043060;28;20514;-73
2023/07/27 03:24:22;;;;;;;3.85;2.15;;;;;;;;;;5052337;28;20037;-74
2023/07/27 03:26:47;;;;;;;3.08;1.90;;;;;;;;;;5050700;28;20112;-74
2023/07/27 03:29:13;;;;;;;2.80;2.03;;;;;;;;;;5051167;28;20117;-74
2023/07/27 03:31:38;;;;;;;1.77;1.65;;;;;;;;;;5051679;28;20519;-74
2023/07/27 03:34:03;;;;;;;3.03;2.03;;;;;;;;;;5050962;28;20500;-74
2023/07/27 03:36:29;;;;;;;2.30;1.45;;;;;;;;;;5028512;28;20043;-73
2023/07/27 03:38:54;;;;;;;3.35;1.65;;;;;;;;;;5056756;28;20068;-74
2023/07/27 03:41:20;;;;;;;1.65;1.55;;;;;;;;;;5064588;28;20037;-74
2023/07/27 03:43:45;;;;;;;4.72;2.25;;;;;;;;;;5068617;28;20051;-75
2023/07/27 03:46:10;;;;;;;2.30;1.60;;;;;;;;;;5067427;28;20031;-74
2023/07/27 03:48:36;;;;;;;2.25;1.75;;;;;;;;;;5046826;28;20074;-75
2023/07/27 03:51:02;;;;;;;2.92;1.80;;;;;;;;;;5047316;28;20611;-74
2023/07/27 03:53:29;;;;;;;2.83;2.00;;;;;;;;;;5065374;28;20044;-75
2023/07/27 03:55:54;;;;;;;2.53;1.73;;;;;;;;;;5065330;28;20032;-74
2023/07/27 03:58:20;;;;;;;1.77;1.20;;;;;;;;;;5067581;28;20029;-74
2023/07/27 04:00:45;;;;;;;1.70;1.17;;;;;;;;;;5049298;28;20040;-74
2023/07/27 04:03:10;;;;;;;2.03;1.35;;;;;;;;;;5055984;28;20037;-73
2023/07/27 04:05:36;;;;;;;3.83;2.17;;;;;;;;;;5028653;28;20037;-74
2023/07/27 04:08:01;;;;;;;2.72;1.98;;;;;;;;;;5054856;28;20028;-75
2023/07/27 04:10:29;;;;;;;2.97;1.85;;;;;;;;;;5057324;28;20555;-75
2023/07/27 04:12:54;;;;;;;2.85;2.10;;;;;;;;;;5067168;28;20154;-74
2023/07/27 04:15:20;;;;;;;1.42;1.33;;;;;;;;;;5066239;28;20112;-74
2023/07/27 04:17:45;;;;;;;2.40;2.00;;;;;;;;;;5051749;28;20028;-75
2023/07/27 04:20:11;;;;;;;3.67;2.38;;;;;;;;;;5057634;28;20032;-75
2023/07/27 04:22:36;;;;;;;1.83;1.65;;;;;;;;;;5055768;28;20032;-74
2023/07/27 04:25:02;;;;;;;3.00;2.10;;;;;;;;;;5063815;28;20040;-75
2023/07/27 04:27:27;;;;;;;2.10;1.85;;;;;;;;;;5068575;28;20048;-74
2023/07/27 04:29:53;;;;;;;2.50;1.95;;;;;;;;;;5048392;28;20049;-74
2023/07/27 04:32:18;;;;;;;2.50;1.80;;;;;;;;;;5051445;28;20044;-74
2023/07/27 04:34:43;;;;;;;3.05;2.08;;;;;;;;;;5060735;28;20159;-74
2023/07/27 04:37:09;;;;;;;4.00;2.38;;;;;;;;;;5063941;28;20074;-74
2023/07/27 04:39:34;;;;;;;2.55;1.70;;;;;;;;;;5052917;28;20043;-74
2023/07/27 04:42:00;;;;;;;2.13;1.70;;;;;;;;;;5066768;28;20035;-74
2023/07/27 04:44:26;;;;;;;2.42;1.60;;;;;;;;;;5060306;28;20493;-74
2023/07/27 04:46:52;;;;;;;2.35;1.73;;;;;;;;;;5052148;28;20056;-74
2023/07/27 04:49:18;;;;;;;2.25;2.00;;;;;;;;;;5057684;28;20043;-74
2023/07/27 04:51:43;;;;;;;3.60;1.90;;;;;;;;;;5056394;28;20040;-74
2023/07/27 04:54:09;;;;;;;4.10;2.03;;;;;;;;;;5063663;28;20036;-74
2023/07/27 04:56:34;;;;;;;2.33;1.77;;;;;;;;;;5063058;28;20032;-74
2023/07/27 04:58:59;;;;;;;2.30;1.83;;;;;;;;;;5067490;28;20032;-74
2023/07/27 05:01:25;;;;;;;3.25;2.20;;;;;;;;;;5053901;28;20047;-74
2023/07/27 05:03:51;;;;;;;2.63;2.08;;;;;;;;;;5058776;28;20036;-76
2023/07/27 05:06:16;;;;;;;4.32;2.10;;;;;;;;;;5058145;28;20028;-76
2023/07/27 05:08:42;;;;;;;3.00;2.05;;;;;;;;;;5066047;28;20588;-74
2023/07/27 05:11:07;;;;;;;2.08;1.88;;;;;;;;;;5065536;28;20044;-76
2023/07/27 05:13:33;;;;;;;1.70;1.60;;;;;;;;;;5067314;28;20098;-75
2023/07/27 05:16:00;;;;;;;2.95;1.92;;;;;;;;;;5052331;28;20552;-74
2023/07/27 05:18:25;;;;;;;2.70;1.83;;;;;;;;;;5049389;28;20029;-74
2023/07/27 05:20:50;;;;;;;2.17;1.90;;;;;;;;;;5051406;28;20082;-74
2023/07/27 05:23:16;;;;;;;3.08;2.38;;;;;;;;;;5047842;28;20789;-74
2023/07/27 05:25:41;;;;;;;1.60;1.50;;;;;;;;;;5054568;28;20024;-74
2023/07/27 05:28:07;;;;;;;2.17;1.88;;;;;;;;;;5057916;28;20021;-74
2023/07/27 05:30:32;;;;;;;3.97;2.08;;;;;;;;;;5057321;28;20466;-74
2023/07/27 05:32:58;;;;;;;2.40;1.67;;;;;;;;;;5051357;28;20035;-74
2023/07/27 05:35:23;;;;;;;2.50;1.85;;;;;;;;;;5052203;28;20392;-74
2023/07/27 05:37:48;;;;;;;3.15;1.80;;;;;;;;;;5059250;28;20094;-74
2023/07/27 05:40:14;;;;;;;2.05;1.67;;;;;;;;;;5052115;28;20021;-74
2023/07/27 05:42:40;;;;;;;2.13;1.92;;;;;;;;;;5061218;28;20531;-74
2023/07/27 05:45:06;;;;;;;4.15;2.10;;;;;;;;;;5061060;28;20108;-74
2023/07/27 05:47:31;;;;;;;1.50;1.35;;;;;;;;;;5052649;28;20120;-74
2023/07/27 05:49:58;;;;;;;2.63;1.67;;;;;;;;;;5051038;28;20135;-74
2023/07/27 05:52:23;;;;;;;2.00;1.80;;;;;;;;;;5059148;28;20064;-74
2023/07/27 05:54:49;;;;;;;3.22;1.95;;;;;;;;;;5046351;28;20017;-74
2023/07/27 05:57:14;;;;;;;4.22;2.85;;;;;;;;;;5059136;28;20389;-74
2023/07/27 05:59:39;;;;;;;3.75;2.10;;;;;;;;;;5056767;28;20032;-74
2023/07/27 06:02:05;;;;;;;2.10;1.63;;;;;;;;;;5054127;28;20032;-74
2023/07/27 06:04:31;;;;;;;1.52;1.42;;;;;;;;;;5054443;28;20036;-74
2023/07/27 06:06:57;;;;;;;1.65;1.55;;;;;;;;;;5057176;28;20033;-74
2023/07/27 06:09:23;;;;;;;2.50;1.30;;;;;;;;;;5063184;28;20539;-74
2023/07/27 06:11:48;;;;;;;1.83;1.50;;;;;;;;;;5055807;28;20028;-75
2023/07/27 06:14:14;;;;;;;2.97;1.52;;;;;;;;;;5055263;28;20020;-75
2023/07/27 06:16:39;;;;;;;1.98;1.70;;;;;;;;;;5056489;28;20056;-74
2023/07/27 06:19:04;;;;;;;3.38;1.60;;;;;;;;;;5053944;28;20381;-74
2023/07/27 06:21:30;;;;;;;2.67;1.73;;;;;;;;;;5059437;28;20043;-74
2023/07/27 06:23:55;;;;;;;6.18;2.80;;;;;;;;;;5052855;28;20021;-74
2023/07/27 06:26:21;;;;;;;2.15;1.95;;;;;;;;;;5060263;28;20032;-74
2023/07/27 06:28:46;;;;;;;2.90;2.20;;;;;;;;;;5055598;28;20024;-74
2023/07/27 06:31:12;;;;;;;3.13;1.88;;;;;;;;;;5052972;28;20170;-74
2023/07/27 06:33:37;;;;;;;3.28;2.08;;;;;;;;;;5047786;28;20493;-74
2023/07/27 06:36:03;;;;;;;3.55;2.20;;;;;;;;;;5054813;28;20017;-74
2023/07/27 06:38:28;;;;;;;1.88;1.67;;;;;;;;;;5061857;28;20422;-74
2023/07/27 06:40:53;;;;;;;2.83;1.75;;;;;;;;;;5058734;28;20492;-74
2023/07/27 06:43:19;;;;;;;1.77;1.67;;;;;;;;;;5055495;28;20029;-74
2023/07/27 06:45:44;;;;;;;2.65;1.85;;;;;;;;;;5055778;28;20111;-74
2023/07/27 06:48:09;;;;;;;2.85;2.10;;;;;;;;;;5050717;28;20012;-74
2023/07/27 06:50:35;;;;;;;3.13;1.52;;;;;;;;;;5052851;28;20028;-74
2023/07/27 06:53:00;;;;;;;3.28;1.65;;;;;;;;;;5057102;28;20032;-74
2023/07/27 06:55:26;;;;;;;3.22;1.83;;;;;;;;;;5055029;28;20091;-74
2023/07/27 06:57:54;;;;;;;3.33;2.05;;;;;;;;;;5053727;28;20021;-74
2023/07/27 07:00:19;;;;;;;3.17;1.70;;;;;;;;;;5048815;28;20029;-74
2023/07/27 07:02:45;;;;;;;3.03;2.13;;;;;;;;;;5050463;28;20032;-74
2023/07/27 07:05:11;;;;;;;3.10;1.80;;;;;;;;;;5055388;28;20021;-74
2023/07/27 07:07:38;;;;;;;2.92;1.70;;;;;;;;;;5052620;28;20107;-74
2023/07/27 07:10:04;;;;;;;1.77;1.60;;;;;;;;;;5055950;28;20421;-74
2023/07/27 07:12:29;;;;;;;2.80;1.88;;;;;;;;;;5054681;28;20128;-74
2023/07/27 07:14:55;;;;;;;2.53;1.83;;;;;;;;;;5052242;28;20424;-73
2023/07/27 07:17:20;;;;;;;3.50;2.10;;;;;;;;;;5051317;28;20043;-73
2023/07/27 07:19:45;;;;;;;2.22;1.52;;;;;;;;;;5054528;28;20046;-73
2023/07/27 07:22:11;;;;;;;3.47;2.08;;;;;;;;;;5054301;28;20016;-73
2023/07/27 07:24:36;;;;;;;2.78;1.92;;;;;;;;;;5059007;28;20062;-72
2023/07/27 07:27:02;;;;;;;3.28;2.05;;;;;;;;;;5055112;28;20021;-73
2023/07/27 07:29:27;;;;;;;1.77;1.65;;;;;;;;;;5049453;28;20134;-73
2023/07/27 07:31:52;;;;;;;3.80;2.03;;;;;;;;;;5062338;28;20412;-73
2023/07/27 07:34:18;;;;;;;2.72;2.22;;;;;;;;;;5057774;28;20029;-73
2023/07/27 07:36:43;;;;;;;3.47;2.10;;;;;;;;;;5054893;28;20031;-73
2023/07/27 07:39:09;;;;;;;2.05;1.90;;;;;;;;;;5060167;28;20024;-73
2023/07/27 07:41:34;;;;;;;2.10;1.88;;;;;;;;;;5056696;28;20378;-73
2023/07/27 07:44:00;;;;;;;2.80;1.98;;;;;;;;;;5054469;28;20465;-73
2023/07/27 07:46:25;;;;;;;3.13;2.00;;;;;;;;;;5051736;28;20385;-73
2023/07/27 07:48:51;;;;;;;2.92;2.25;;;;;;;;;;5055425;28;20080;-73
2023/07/27 07:51:16;;;;;;;2.55;1.77;;;;;;;;;;5048866;28;20031;-74
2023/07/27 07:53:42;;;;;;;3.03;2.30;;;;;;;;;;5049297;28;20059;-74
2023/07/27 07:56:14;;;;;;;2.45;2.25;;;;;;;;;;5050257;28;20777;-74
2023/07/27 07:58:40;;;;;;;3.35;1.77;;;;;;;;;;5050052;28;20135;-73
2023/07/27 08:01:06;;;;;;;1.63;1.40;;;;;;;;;;5053364;28;20099;-74
2023/07/27 08:03:31;;;;;;;1.73;1.50;;;;;;;;;;5052919;28;20035;-74
2023/07/27 08:05:57;;;;;;;3.10;2.13;;;;;;;;;;5013570;28;1128675;-74
2023/07/27 08:08:22;;;;;;;2.05;1.63;;;;;;;;;;5052766;28;20013;-74
2023/07/27 08:10:48;;;;;;;4.40;2.47;;;;;;;;;;5053301;28;20029;-74
2023/07/27 08:13:13;;;;;;;2.35;1.80;;;;;;;;;;5045548;28;20119;-73
2023/07/27 08:15:39;;;;;;;2.38;1.52;;;;;;;;;;5034543;28;20040;-73
2023/07/27 08:18:04;;;;;;;3.05;2.05;;;;;;;;;;5053407;28;20385;-74
2023/07/27 08:20:29;;;;;;;1.45;1.35;;;;;;;;;;5056773;28;20032;-74
2023/07/27 08:22:55;;;;;;;4.38;2.10;;;;;;;;;;5058576;28;20512;-73
2023/07/27 08:25:21;;;;;;;2.03;1.48;;;;;;;;;;5055211;28;20021;-73
2023/07/27 08:27:47;;;;;;;3.80;2.25;;;;;;;;;;5052327;28;20025;-73
2023/07/27 08:30:13;;;;;;;1.88;1.42;;;;;;;;;;5049963;28;20021;-74
2023/07/27 08:32:40;;;;;;;2.22;1.88;;;;;;;;;;5056763;28;20470;-73
2023/07/27 08:35:06;;;;;;;4.22;2.60;;;;;;;;;;5048598;28;20393;-73
2023/07/27 08:37:31;;;;;;;4.35;2.40;;;;;;;;;;5053477;28;20032;-74
2023/07/27 08:39:58;;;;;;;1.65;1.45;;;;;;;;;;5055949;28;20025;-74
2023/07/27 08:42:24;;;;;;;2.75;1.70;;;;;;;;;;5052922;28;20029;-73
2023/07/27 08:44:49;;;;;;;1.60;1.50;;;;;;;;;;5048715;28;20439;-74
2023/07/27 08:47:15;;;;;;;3.75;2.55;;;;;;;;;;5054073;28;20392;-74
2023/07/27 08:49:42;;;;;;;2.50;2.08;;;;;;;;;;5054504;28;20043;-74
2023/07/27 08:52:10;;;;;;;3.95;2.80;;;;;;;;;;5059006;28;20430;-74
2023/07/27 08:54:36;;;;;;;2.50;2.25;;;;;;;;;;5056934;28;20508;-74
2023/07/27 08:57:01;;;;;;;3.53;2.35;;;;;;;;;;5050205;28;20029;-73
2023/07/27 08:59:27;;;;;;;3.15;2.28;;;;;;;;;;5048301;28;20397;-74
2023/07/27 09:01:52;;;;;;;2.20;1.80;;;;;;;;;;5054356;28;20043;-73
2023/07/27 09:04:17;;;;;;;3.15;2.40;;;;;;;;;;5048503;28;20465;-73
2023/07/27 09:06:44;;;;;;;4.65;2.70;;;;;;;;;;5049936;28;20032;-74
2023/07/27 09:09:17;;;;;;;2.70;2.50;;;;;;;;;;5051409;28;20719;-74
2023/07/27 09:11:43;;;;;;;2.85;2.30;;;;;;;;;;5046616;28;20081;-74
2023/07/27 09:14:09;;;;;;;4.93;2.35;;;;;;;;;;5047732;28;20021;-74
2023/07/27 09:16:35;;;;;;;2.38;2.15;;;;;;;;;;5053532;28;20051;-74
2023/07/27 09:19:01;;;;;;;3.60;2.00;;;;;;;;;;5050319;28;20021;-74
2023/07/27 09:21:27;;;;;;;2.88;1.60;;;;;;;;;;5041362;28;20404;-73
2023/07/27 09:23:57;;;;;;;2.67;1.92;;;;;;;;;;5059458;28;20405;-74
2023/07/27 09:26:25;;;;;;;3.45;2.90;;;;;;;;;;5055415;28;20032;-74
2023/07/27 09:28:53;;;;;;;3.95;2.53;;;;;;;;;;5050904;28;20023;-74
2023/07/27 09:31:18;;;;;;;3.90;2.55;;;;;;;;;;5051927;28;20025;-74
2023/07/27 09:33:44;;;;;;;3.00;2.40;;;;;;;;;;5052378;28;20033;-74
2023/07/27 09:36:12;;;;;;;4.00;2.70;;;;;;;;;;5054164;28;20104;-73
2023/07/27 09:38:38;;;;;;;4.40;2.85;;;;;;;;;;5051690;28;20107;-74
2023/07/27 09:41:08;;;;;;;4.15;2.72;;;;;;;;;;5055179;28;20128;-74
2023/07/27 09:43:39;;;;;;;2.90;2.45;;;;;;;;;;5051138;28;20067;-74
2023/07/27 09:46:05;;;;;;;2.92;2.60;;;;;;;;;;5044111;28;20062;-74
2023/07/27 09:48:32;;;;;;;3.60;2.40;;;;;;;;;;5045184;28;20416;-74
2023/07/27 09:51:01;;;;;;;3.75;2.97;;;;;;;;;;5052344;28;20036;-74
2023/07/27 09:53:31;;;;;;;2.78;2.58;;;;;;;;;;5053222;28;20064;-74
2023/07/27 09:55:58;;;;;;;2.78;1.98;;;;;;;;;;5054314;28;20099;-74
2023/07/27 09:58:23;;;;;;;5.53;2.58;;;;;;;;;;5042661;28;20378;-74
2023/07/27 10:00:48;;;;;;;2.20;2.00;;;;;;;;;;5053005;28;20603;-74
2023/07/27 10:03:14;;;;;;;6.25;2.72;;;;;;;;;;5045420;28;20021;-74
2023/07/27 10:05:41;;;;;;;5.28;3.13;;;;;;;;;;5053787;28;20039;-74
2023/07/27 10:08:07;;;;;;;6.97;2.92;;;;;;;;;;5061181;28;20555;-74
2023/07/27 10:10:32;;;;;;;4.72;3.15;;;;;;;;;;5055159;28;20037;-74
2023/07/27 10:13:03;;;;;;;3.25;2.25;;;;;;;;;;5048266;28;20082;-74
2023/07/27 10:15:29;;;;;;;;;;;;;;;;;;5056682;28;20043;-74
2023/07/27 10:17:58;;;;;;;2.92;2.60;;;;;;;;;;5059987;28;19908;-73
2023/07/27 10:20:33;;;;;;;4.05;2.90;;;;;;;;;;5060978;28;20099;-73
2023/07/27 10:23:25;;;;;;;2.97;2.53;;;;;;;;;;5059270;28;20037;-74
2023/07/27 10:25:56;;;;;;;3.17;2.95;;;;;;;;;;5051196;28;20023;-74
2023/07/27 10:28:40;;;;;;;3.08;2.78;;;;;;;;;;5050833;28;20021;-74
2023/07/27 10:31:23;;;;;;;3.35;2.78;;;;;;;;;;5055941;28;20027;-74
2023/07/27 10:34:16;;;;;;;3.53;2.95;;;;;;;;;;5058717;28;20052;-74
2023/07/27 10:36:58;;;;;;;2.90;2.67;;;;;;;;;;5057679;28;20024;-73
2023/07/27 10:39:34;;;;;;;4.53;3.00;;;;;;;;;;5054441;28;20048;-73
2023/07/27 10:42:00;;;;;;;3.85;2.72;;;;;;;;;;5056389;28;20029;-74
2023/07/27 10:44:26;;;;;;;2.67;2.03;;;;;;;;;;5054425;28;20059;-74
2023/07/27 10:46:57;;;;;;;3.13;2.17;;;;;;;;;;5051855;28;20108;-74
2023/07/27 10:49:23;;;;;;;3.25;2.95;;;;;;;;;;5060676;28;20043;-74
2023/07/27 10:51:49;;;;;;;4.20;2.42;;;;;;;;;;5058798;28;20504;-74
2023/07/27 10:54:14;;;;;;;3.50;2.53;;;;;;;;;;5038449;28;20033;-73
2023/07/27 10:56:44;;;;;;;2.92;2.30;;;;;;;;;;5047524;28;20075;-73
2023/07/27 10:59:13;;;;;;;2.00;1.90;;;;;;;;;;5050495;28;20052;-74
2023/07/27 11:01:40;;;;;;;3.38;2.55;;;;;;;;;;5052665;28;20032;-74
2023/07/27 11:04:06;;;;;;;2.20;2.00;;;;;;;;;;5055496;28;20025;-74
2023/07/27 11:06:40;;;;;;;3.47;2.03;;;;;;;;;;5057117;28;20556;-74
2023/07/27 11:09:16;;;;;;;2.63;2.05;;;;;;;;;;5050330;28;20108;-74
2023/07/27 11:11:42;;;;;;;1.73;1.60;;;;;;;;;;5050541;28;20052;-74
2023/07/27 11:14:08;;;;;;;1.70;1.60;;;;;;;;;;5050125;28;20497;-74
2023/07/27 11:16:37;;;;;;;1.63;1.40;;;;;;;;;;5054819;28;20036;-74
2023/07/27 11:19:05;;;;;;;1.40;1.27;;;;;;;;;;5060136;28;20033;-74
2023/07/27 11:21:32;;;;;;;1.38;1.27;;;;;;;;;;5055584;28;20033;-74
2023/07/27 11:23:57;;;;;;;1.40;1.30;;;;;;;;;;5051956;28;20064;-74
2023/07/27 11:26:26;;;;;;;1.67;1.48;;;;;;;;;;5048194;28;20450;-74
2023/07/27 11:28:54;;;;;;;1.25;1.15;;;;;;;;;;5056557;28;20357;-74
2023/07/27 11:31:19;;;;;;;1.30;1.20;;;;;;;;;;5051386;28;20089;-74
2023/07/27 11:33:45;;;;;;;1.95;1.25;;;;;;;;;;5054536;28;20024;-73
2023/07/27 11:36:11;;;;;;;1.75;1.38;;;;;;;;;;5054931;28;20514;-73
2023/07/27 11:38:36;;;;;;;1.92;1.00;;;;;;;;;;5056877;28;20351;-73
2023/07/27 11:41:02;;;;;;;1.50;1.40;;;;;;;;;;5050569;28;20537;-73
2023/07/27 11:43:28;;;;;;;1.42;1.33;;;;;;;;;;5053748;28;20786;-73
2023/07/27 11:45:57;;;;;;;1.50;1.40;;;;;;;;;;5052929;28;20029;-73
2023/07/27 11:48:29;;;;;;;1.75;1.30;;;;;;;;;;5061033;28;20021;-73
2023/07/27 11:50:56;;;;;;;1.33;1.20;;;;;;;;;;5056793;28;20024;-73
2023/07/27 11:53:24;;;;;;;1.17;0.90;;;;;;;;;;5053054;28;20432;-73
2023/07/27 11:55:50;;;;;;;1.70;1.33;;;;;;;;;;5044956;28;20083;-73
2023/07/27 11:58:15;;;;;;;1.33;1.23;;;;;;;;;;5048675;28;20503;-73
2023/07/27 12:00:47;;;;;;;2.15;1.55;;;;;;;;;;5048219;28;20028;-73
2023/07/27 12:03:12;;;;;;;1.98;1.50;;;;;;;;;;5048251;28;20070;-74
2023/07/27 12:05:38;;;;;;;1.42;1.33;;;;;;;;;;5052540;28;20032;-73
2023/07/27 12:08:04;;;;;;;1.27;1.17;;;;;;;;;;5052936;28;20028;-74
2023/07/27 12:10:29;;;;;;;1.30;1.15;;;;;;;;;;5043128;28;20481;-73
2023/07/27 12:13:01;;;;;;;1.60;1.50;;;;;;;;;;5050601;28;20025;-74
2023/07/27 12:15:28;;;;;;;1.50;1.40;;;;;;;;;;5042925;28;20025;-73
2023/07/27 12:17:56;;;;;;;1.13;1.02;;;;;;;;;;5052498;28;20028;-73
2023/07/27 12:20:25;;;;;;;1.33;1.27;;;;;;;;;;5046517;28;20025;-73
2023/07/27 12:22:51;;;;;;;1.35;1.25;;;;;;;;;;5050605;28;20070;-73
2023/07/27 12:25:16;;;;;;;1.05;0.90;;;;;;;;;;5042628;28;20104;-73
2023/07/27 12:27:42;;;;;;;1.98;1.13;;;;;;;;;;5049727;28;20053;-73
2023/07/27 12:30:09;;;;;;;1.13;1.10;;;;;;;;;;5038999;28;20035;-73
2023/07/27 12:32:35;;;;;;;1.25;0.95;;;;;;;;;;5038849;28;20024;-73
2023/07/27 12:35:01;;;;;;;1.02;0.95;;;;;;;;;;5041546;28;20074;-73
2023/07/27 12:37:26;;;;;;;1.17;1.02;;;;;;;;;;5040860;28;20055;-73
2023/07/27 12:39:52;;;;;;;1.42;1.33;;;;;;;;;;5034259;28;20432;-73
2023/07/27 12:42:17;;;;;;;1.30;1.20;;;;;;;;;;5037420;28;20028;-73
2023/07/27 12:44:42;;;;;;;1.65;1.00;;;;;;;;;;5041570;28;20097;-73
2023/07/27 12:47:08;;;;;;;1.00;1.00;;;;;;;;;;5039720;28;20025;-73
2023/07/27 12:49:33;;;;;;;1.15;1.05;;;;;;;;;;5040667;28;20154;-73
2023/07/27 12:51:59;;;;;;;0.90;0.90;;;;;;;;;;5044725;28;20039;-73
2023/07/27 12:54:25;;;;;;;1.95;0.90;;;;;;;;;;5038251;28;20038;-73
2023/07/27 12:56:51;;;;;;;1.08;0.98;;;;;;;;;;5040894;28;20032;-73
2023/07/27 12:59:17;;;;;;;1.15;1.05;;;;;;;;;;5047856;28;20025;-73
2023/07/27 13:01:43;;;;;;;1.13;1.02;;;;;;;;;;5055287;28;20025;-73
2023/07/27 13:04:08;;;;;;;1.00;0.88;;;;;;;;;;5049761;28;20377;-73
2023/07/27 13:06:33;;;;;;;1.20;0.88;;;;;;;;;;5053293;28;20139;-73
2023/07/27 13:08:59;;;;;;;0.90;0.90;;;;;;;;;;5055055;28;20063;-73
2023/07/27 13:11:24;;;;;;;0.73;0.73;;;;;;;;;;5056100;28;20024;-73
2023/07/27 13:13:50;;;;;;;0.80;0.80;;;;;;;;;;5050941;28;20446;-73
2023/07/27 13:16:15;;;;;;;0.88;0.88;;;;;;;;;;5062820;28;20042;-73
2023/07/27 13:18:40;;;;;;;0.85;0.80;;;;;;;;;;5061369;28;20021;-73
2023/07/27 13:21:06;;;;;;;0.60;0.60;;;;;;;;;;5055615;28;20040;-73
2023/07/27 13:23:31;;;;;;;0.98;0.88;;;;;;;;;;5052699;28;20440;-74
2023/07/27 13:25:56;;;;;;;0.60;0.60;;;;;;;;;;5042600;28;20037;-73
2023/07/27 13:28:22;;;;;;;1.40;0.70;;;;;;;;;;5054537;28;20114;-73
2023/07/27 13:30:47;;;;;;;0.60;0.60;;;;;;;;;;5059604;28;20059;-73
2023/07/27 13:33:14;;;;;;;1.27;0.52;;;;;;;;;;5051676;28;20457;-73
2023/07/27 13:35:39;;;;;;;1.08;0.80;;;;;;;;;;5052591;28;20037;-73
2023/07/27 13:38:04;;;;;;;0.70;0.70;;;;;;;;;;5047446;28;20067;-73
2023/07/27 13:40:30;;;;;;;1.10;0.75;;;;;;;;;;5051023;28;20050;-73
2023/07/27 13:42:55;;;;;;;0.88;0.70;;;;;;;;;;5048210;28;20040;-73
2023/07/27 13:45:21;;;;;;;0.52;0.52;;;;;;;;;;5046219;28;20024;-73
2023/07/27 13:47:46;;;;;;;0.63;0.63;;;;;;;;;;5053886;28;20024;-73
2023/07/27 13:50:12;;;;;;;2.00;0.50;;;;;;;;;;5054059;28;20078;-73
2023/07/27 13:52:37;;;;;;;0.57;0.45;;;;;;;;;;5049183;28;20025;-73
2023/07/27 13:55:04;;;;;;;0.40;0.40;;;;;;;;;;5048723;28;20024;-74
2023/07/27 13:57:30;;;;;;;1.30;1.20;;;;;;;;;;5055652;28;20028;-73
2023/07/27 13:59:56;;;;;;;0.52;0.40;;;;;;;;;;5058910;28;20490;-74
2023/07/27 14:02:21;;;;;;;0.60;0.40;;;;;;;;;;5061977;28;20021;-74
2023/07/27 14:04:47;;;;;;;0.40;0.40;;;;;;;;;;5055576;28;20032;-74
2023/07/27 14:07:12;;;;;;;0.60;0.60;;;;;;;;;;5053040;28;20033;-74
2023/07/27 14:09:37;;;;;;;0.50;0.50;;;;;;;;;;5059004;28;20497;-74
2023/07/27 14:12:03;;;;;;;0.40;0.40;;;;;;;;;;5043168;28;20116;-74
2023/07/27 14:14:29;;;;;;;0.40;0.40;;;;;;;;;;5048779;28;20488;-74
2023/07/27 14:16:54;;;;;;;0.30;0.30;;;;;;;;;;5058478;28;20032;-74
2023/07/27 14:19:20;;;;;;;0.40;0.40;;;;;;;;;;5053235;28;20058;-74
2023/07/27 14:21:45;;;;;;;0.40;0.40;;;;;;;;;;5056933;28;20025;-74
2023/07/27 14:24:10;;;;;;;0.28;0.28;;;;;;;;;;5046966;28;20064;-74
2023/07/27 14:26:36;;;;;;;0.40;0.40;;;;;;;;;;5045121;28;20052;-74
2023/07/27 14:29:03;;;;;;;0.73;0.35;;;;;;;;;;5059068;28;20396;-74
2023/07/27 14:31:28;;;;;;;0.30;0.30;;;;;;;;;;5059688;28;20033;-74
2023/07/27 14:33:54;;;;;;;1.75;0.50;;;;;;;;;;5042783;28;20094;-74
2023/07/27 14:36:20;;;;;;;0.50;0.50;;;;;;;;;;5042302;28;20069;-74
2023/07/27 14:38:45;;;;;;;1.88;0.40;;;;;;;;;;5049696;28;20108;-74
2023/07/27 14:41:10;;;;;;;0.30;0.30;;;;;;;;;;5051038;28;20045;-74